GOOY/DKR METAR and TAF weather

Enter ICAO airport designator
Station Type Date Time Source
GOOY METAR 2018/10/21 06:00 UTC NOAA

GOOY 210600Z 34004KT 8000 NSC 26/24 Q1010


Station Type Date Time Source
GOOY Decoded METAR 2018/10/21 06:00 UTC NOAA

Dakar / Yoff, Senegal (GOOY) 14-44N 017-30W 24M
Oct 21, 2018 - 02:00 AM EDT / 2018.10.21 0600 UTC
Wind: from the NNW (340 degrees) at 5 MPH (4 KT):0
Visibility: 4 mile(s):0
Temperature: 78 F (26 C)
Dew Point: 75 F (24 C)
Relative Humidity: 88%
Pressure (altimeter): 29.83 in. Hg (1010 hPa)
ob: GOOY 210600Z 34004KT 8000 NSC 26/24 Q1010
cycle: 6

Station Type Date Time Source
GOOY TAF 2018/10/21 06:30 UTC NOAA

TAF GOOY 210530Z 2106/2212 03008KT 9999 SCT010


Example: see airport list